Time;durP1;ratioP1;P1;durP2;ratioP2;P2;SDS_P1;SDS_P2;PMS_P1;PMS_P2;Temp;Humidity;BMP_temperature;BMP_pressure;BME280_temperature;BME280_humidity;BME280_pressure;Samples;Min_cycle;Max_cycle;Signal;HPM_P1;HPM_P2
2023/02/18 00:01:23;;;;;;;3.15;1.50;;;12.10;99.90;;;;;;4942988;29;20035;-76
2023/02/18 00:03:49;;;;;;;3.33;1.73;;;12.20;99.90;;;;;;4942406;28;20035;-76
2023/02/18 00:06:23;;;;;;;3.80;1.58;;;12.10;99.90;;;;;;4971131;28;20023;-78
2023/02/18 00:08:50;;;;;;;3.35;1.67;;;12.10;99.90;;;;;;4954439;28;20406;-77
2023/02/18 00:11:19;;;;;;;4.47;2.30;;;12.10;99.90;;;;;;4931284;28;20038;-77
2023/02/18 00:13:54;;;;;;;2.53;1.35;;;12.20;99.90;;;;;;4971049;28;20034;-77
2023/02/18 00:16:20;;;;;;;2.92;1.83;;;12.10;99.90;;;;;;4947570;28;20031;-77
2023/02/18 00:18:47;;;;;;;3.28;1.65;;;12.10;99.90;;;;;;4970929;28;20035;-77
2023/02/18 00:21:13;;;;;;;3.58;2.03;;;12.10;99.90;;;;;;4947171;28;20449;-77
2023/02/18 00:23:39;;;;;;;5.32;2.03;;;12.10;99.90;;;;;;4965501;28;20034;-76
2023/02/18 00:26:10;;;;;;;3.72;2.15;;;12.30;99.90;;;;;;4963835;28;20047;-77
2023/02/18 00:28:36;;;;;;;4.93;2.28;;;12.30;99.90;;;;;;4970796;28;20085;-77
2023/02/18 00:31:15;;;;;;;3.30;2.00;;;12.30;99.90;;;;;;4946731;28;20031;-77
2023/02/18 00:33:41;;;;;;;4.25;2.08;;;12.40;99.90;;;;;;4954165;28;20483;-77
2023/02/18 00:36:14;;;;;;;3.67;2.17;;;12.40;99.90;;;;;;4946415;28;20074;-77
2023/02/18 00:38:48;;;;;;;2.63;1.38;;;12.50;99.90;;;;;;4970546;28;20050;-77
2023/02/18 00:41:15;;;;;;;3.47;1.98;;;12.50;99.90;;;;;;4947215;28;20054;-77
2023/02/18 00:43:42;;;;;;;3.50;1.77;;;12.60;99.90;;;;;;4970725;28;20070;-77
2023/02/18 00:46:08;;;;;;;2.90;1.40;;;12.60;99.90;;;;;;4964154;28;20561;-77
2023/02/18 00:48:34;;;;;;;3.55;1.73;;;12.60;99.90;;;;;;4970319;28;20050;-77
2023/02/18 00:51:04;;;;;;;3.83;2.03;;;12.60;99.90;;;;;;4946454;28;20446;-77
2023/02/18 00:53:30;;;;;;;4.30;1.42;;;12.60;99.90;;;;;;4934617;29;20089;-77
2023/02/18 00:55:56;;;;;;;3.60;2.00;;;12.60;99.90;;;;;;4960084;28;20557;-77
2023/02/18 00:58:22;;;;;;;4.07;2.17;;;12.60;99.90;;;;;;4945869;28;20022;-77
2023/02/18 01:00:48;;;;;;;3.38;1.35;;;12.60;99.90;;;;;;4963436;28;20173;-77
2023/02/18 01:03:14;;;;;;;2.55;1.65;;;12.60;99.90;;;;;;4953672;28;20693;-77
2023/02/18 01:05:41;;;;;;;4.10;1.85;;;12.60;99.90;;;;;;4946355;28;20031;-77
2023/02/18 01:08:08;;;;;;;2.17;1.13;;;12.60;99.90;;;;;;4970609;28;20035;-77
2023/02/18 01:10:38;;;;;;;2.22;1.38;;;12.70;99.90;;;;;;4946186;28;20042;-77
2023/02/18 01:13:04;;;;;;;3.35;1.60;;;12.80;99.90;;;;;;4970767;28;20548;-77
2023/02/18 01:15:30;;;;;;;3.80;1.58;;;12.80;99.90;;;;;;4946548;28;20466;-77
2023/02/18 01:17:56;;;;;;;5.28;1.42;;;12.70;99.90;;;;;;4970537;28;20117;-77
2023/02/18 01:20:22;;;;;;;2.13;1.48;;;12.70;99.90;;;;;;4963247;28;20105;-77
2023/02/18 01:22:48;;;;;;;4.40;1.85;;;12.70;99.90;;;;;;4970666;28;20043;-77
2023/02/18 01:25:15;;;;;;;3.58;1.50;;;12.70;99.90;;;;;;4963290;28;20565;-77
2023/02/18 01:27:41;;;;;;;2.17;1.13;;;12.70;99.90;;;;;;4954156;28;20034;-77
2023/02/18 01:30:11;;;;;;;3.72;2.05;;;12.70;99.90;;;;;;4943676;29;20031;-77
2023/02/18 01:32:37;;;;;;;6.17;2.13;;;12.70;99.90;;;;;;4939073;28;20461;-77
2023/02/18 01:35:05;;;;;;;2.67;1.30;;;12.80;99.90;;;;;;4963160;28;20114;-77
2023/02/18 01:37:31;;;;;;;3.58;1.85;;;12.80;99.90;;;;;;4970347;28;20034;-77
2023/02/18 01:39:57;;;;;;;2.28;1.42;;;12.80;99.90;;;;;;4965534;28;20108;-77
2023/02/18 01:42:27;;;;;;;3.17;1.67;;;12.70;99.90;;;;;;4973994;28;20499;-77
2023/02/18 01:44:53;;;;;;;3.55;1.52;;;12.80;99.90;;;;;;4973455;28;20437;-77
2023/02/18 01:47:19;;;;;;;3.35;1.65;;;12.80;99.90;;;;;;4956915;28;20394;-77
2023/02/18 01:49:51;;;;;;;2.45;1.30;;;12.90;99.90;;;;;;4973080;28;20023;-77
2023/02/18 01:52:25;;;;;;;2.28;1.17;;;12.80;99.90;;;;;;4939692;28;20078;-77
2023/02/18 01:54:56;;;;;;;3.72;1.92;;;12.80;99.90;;;;;;4957330;28;20041;-77
2023/02/18 01:57:33;;;;;;;2.47;1.45;;;12.80;99.90;;;;;;4954377;28;20031;-77
2023/02/18 02:00:11;;;;;;;2.65;1.27;;;12.80;99.90;;;;;;4969597;28;20105;-77
2023/02/18 02:02:41;;;;;;;2.20;1.33;;;12.80;99.90;;;;;;4923252;29;20050;-78
2023/02/18 02:05:07;;;;;;;2.92;1.10;;;12.80;99.90;;;;;;4944846;28;20051;-77
2023/02/18 02:07:33;;;;;;;2.45;1.52;;;12.70;99.90;;;;;;4966072;28;20051;-77
2023/02/18 02:10:00;;;;;;;4.30;1.45;;;12.70;99.90;;;;;;4977735;28;20038;-77
2023/02/18 02:12:44;;;;;;;1.88;1.17;;;12.70;99.90;;;;;;4938351;28;20035;-77
2023/02/18 02:15:46;;;;;;;3.13;1.70;;;12.70;99.90;;;;;;4942000;28;20030;-77
2023/02/18 02:18:33;;;;;;;2.28;1.15;;;12.80;99.90;;;;;;4963361;28;20074;-77
2023/02/18 02:21:29;;;;;;;3.60;1.50;;;12.80;99.90;;;;;;4966162;28;20054;-77
2023/02/18 02:24:01;;;;;;;1.60;0.73;;;12.80;99.90;;;;;;4966797;28;20035;-77
2023/02/18 02:26:45;;;;;;;1.02;0.63;;;12.80;99.90;;;;;;4961666;28;20109;-77
2023/02/18 02:29:27;;;;;;;1.88;0.90;;;12.70;99.90;;;;;;4968567;28;20047;-77
2023/02/18 02:32:46;;;;;;;2.22;1.17;;;12.70;99.90;;;;;;4954246;28;20026;-77
2023/02/18 02:36:13;;;;;;;1.20;0.70;;;12.60;99.90;;;;;;4929987;29;20090;-77
2023/02/18 02:38:55;;;;;;;1.90;1.27;;;12.60;99.90;;;;;;4883042;28;20041;-77
2023/02/18 02:41:37;;;;;;;1.52;0.98;;;12.70;99.90;;;;;;4966398;28;20046;-77
2023/02/18 02:44:12;;;;;;;3.63;1.83;;;12.60;99.90;;;;;;4954633;28;20030;-77
2023/02/18 02:46:46;;;;;;;3.55;1.20;;;12.60;99.90;;;;;;4968361;28;20026;-77
2023/02/18 02:49:43;;;;;;;2.00;0.90;;;12.60;99.90;;;;;;4969781;28;20570;-77
2023/02/18 02:52:25;;;;;;;1.80;1.17;;;12.50;99.90;;;;;;4953999;28;20041;-77
2023/02/18 02:54:51;;;;;;;1.65;0.98;;;12.50;99.90;;;;;;4972428;28;20171;-77
2023/02/18 02:57:17;;;;;;;2.05;1.30;;;12.50;99.90;;;;;;4955290;28;20096;-77
2023/02/18 03:02:49;;;;;;;2.50;1.00;;;12.50;99.90;;;;;;4987662;28;20052;-81
2023/02/18 03:05:48;;;;;;;1.75;0.90;;;12.50;99.90;;;;;;4989800;28;20045;-81
2023/02/18 03:08:41;;;;;;;2.85;1.33;;;12.50;99.90;;;;;;4992107;28;20053;-81
2023/02/18 03:11:11;;;;;;;1.88;1.50;;;12.50;99.90;;;;;;4984520;28;20042;-81
2023/02/18 03:14:00;;;;;;;2.30;1.23;;;12.50;99.90;;;;;;4975747;28;20085;-81
2023/02/18 03:16:58;;;;;;;1.55;0.98;;;12.40;99.90;;;;;;4975304;28;20080;-81
2023/02/18 03:19:46;;;;;;;2.30;1.13;;;12.40;99.90;;;;;;4985231;28;20034;-81
2023/02/18 03:22:28;;;;;;;3.58;1.20;;;12.50;99.90;;;;;;4974804;28;20437;-81
2023/02/18 03:24:56;;;;;;;3.42;1.65;;;12.50;99.90;;;;;;4991946;28;20030;-81
2023/02/18 03:27:39;;;;;;;2.50;1.02;;;12.40;99.90;;;;;;4958914;28;20029;-81
2023/02/18 03:30:24;;;;;;;1.95;1.02;;;12.40;99.90;;;;;;4973289;28;20038;-82
2023/02/18 03:32:56;;;;;;;3.25;1.25;;;12.40;99.90;;;;;;4971503;28;20057;-82
2023/02/18 03:35:23;;;;;;;1.38;0.70;;;12.40;99.90;;;;;;4974925;28;20045;-82
2023/02/18 03:38:12;;;;;;;2.75;0.70;;;12.40;99.90;;;;;;4974813;28;20049;-81
2023/02/18 03:40:38;;;;;;;2.17;1.10;;;12.30;99.90;;;;;;4973105;28;20491;-81
2023/02/18 03:43:04;;;;;;;1.85;0.85;;;12.30;99.90;;;;;;4972844;28;20089;-81
2023/02/18 03:45:30;;;;;;;1.80;0.80;;;12.30;99.90;;;;;;4974426;28;20030;-81
2023/02/18 03:47:55;;;;;;;2.63;0.90;;;12.30;99.90;;;;;;4991709;28;20027;-82
2023/02/18 03:50:21;;;;;;;3.60;1.42;;;12.30;99.90;;;;;;4974059;28;20383;-81
2023/02/18 03:52:47;;;;;;;2.58;1.05;;;12.30;99.90;;;;;;4974381;28;20485;-82
2023/02/18 03:55:13;;;;;;;1.48;0.85;;;12.30;99.90;;;;;;4991531;28;20046;-81
2023/02/18 03:57:39;;;;;;;2.65;1.05;;;12.30;99.90;;;;;;4974487;28;20030;-82
2023/02/18 04:00:06;;;;;;;2.72;1.25;;;12.30;99.90;;;;;;4990851;28;20037;-81
2023/02/18 04:02:32;;;;;;;2.30;1.30;;;12.40;99.90;;;;;;4987116;28;20062;-81
2023/02/18 04:04:58;;;;;;;2.92;1.60;;;12.40;99.90;;;;;;4991271;28;20042;-82
2023/02/18 04:07:24;;;;;;;3.78;1.63;;;12.50;99.90;;;;;;4982993;28;20030;-79
2023/02/18 04:09:49;;;;;;;2.25;1.23;;;12.50;99.90;;;;;;4991268;28;20034;-80
2023/02/18 04:12:15;;;;;;;3.85;1.85;;;12.60;99.90;;;;;;4991519;28;20026;-80
2023/02/18 04:14:41;;;;;;;3.60;1.63;;;12.50;99.90;;;;;;4991577;28;20049;-80
2023/02/18 04:17:07;;;;;;;3.35;1.70;;;12.50;99.90;;;;;;4991548;28;20094;-80
2023/02/18 04:19:32;;;;;;;4.20;2.00;;;12.50;99.90;;;;;;4973825;28;20033;-80
2023/02/18 04:21:58;;;;;;;3.92;1.85;;;12.50;99.90;;;;;;4974252;28;20108;-80
2023/02/18 04:24:24;;;;;;;2.42;1.52;;;12.50;99.90;;;;;;4991232;28;20108;-80
2023/02/18 04:26:50;;;;;;;4.13;2.03;;;12.50;99.90;;;;;;4991740;28;20030;-80
2023/02/18 04:29:15;;;;;;;5.90;2.03;;;12.50;99.90;;;;;;4990850;28;20031;-80
2023/02/18 04:31:41;;;;;;;5.15;2.55;;;12.40;99.90;;;;;;4991547;28;20390;-81
2023/02/18 04:34:07;;;;;;;3.47;1.80;;;12.40;99.90;;;;;;4991210;28;20038;-80
2023/02/18 04:36:33;;;;;;;4.28;2.20;;;12.30;99.90;;;;;;4991503;28;20054;-80
2023/02/18 04:38:59;;;;;;;3.22;2.00;;;12.30;99.90;;;;;;4973713;28;20026;-81
2023/02/18 04:41:24;;;;;;;3.83;1.90;;;12.40;99.90;;;;;;4991445;28;20030;-81
2023/02/18 04:43:50;;;;;;;4.70;2.08;;;12.40;99.90;;;;;;4991305;28;20038;-82
2023/02/18 04:46:16;;;;;;;4.28;2.05;;;12.40;99.90;;;;;;4991504;28;20113;-81
2023/02/18 04:48:42;;;;;;;3.78;2.08;;;12.30;99.90;;;;;;4992037;28;20109;-80
2023/02/18 04:51:08;;;;;;;3.40;1.85;;;12.30;99.90;;;;;;4990960;28;20498;-80
2023/02/18 04:53:34;;;;;;;6.28;2.72;;;12.30;99.90;;;;;;4991598;28;20034;-81
2023/02/18 04:56:00;;;;;;;4.20;2.00;;;12.40;99.90;;;;;;4990932;28;20505;-80
2023/02/18 04:58:26;;;;;;;4.95;2.53;;;12.40;99.90;;;;;;4990916;28;20019;-81
2023/02/18 05:00:52;;;;;;;5.68;3.00;;;12.40;99.90;;;;;;4973446;28;20151;-81
2023/02/18 05:03:18;;;;;;;6.15;2.45;;;12.30;99.90;;;;;;4973666;28;20150;-81
2023/02/18 05:05:44;;;;;;;3.45;1.70;;;12.30;99.90;;;;;;4990934;28;20030;-80
2023/02/18 05:08:11;;;;;;;5.80;2.75;;;12.30;99.90;;;;;;4991249;28;20033;-81
2023/02/18 05:10:38;;;;;;;3.25;2.42;;;12.30;99.90;;;;;;4973134;28;20114;-81
2023/02/18 05:13:03;;;;;;;5.53;2.20;;;12.30;99.90;;;;;;4973547;28;20038;-81
2023/02/18 05:15:29;;;;;;;7.63;2.08;;;12.30;99.90;;;;;;4992106;28;20027;-80
2023/02/18 05:17:55;;;;;;;4.82;2.30;;;12.40;99.90;;;;;;4994936;28;20022;-80
2023/02/18 05:20:21;;;;;;;3.60;2.10;;;12.30;99.90;;;;;;4994609;28;20084;-80
2023/02/18 05:22:46;;;;;;;5.22;3.15;;;12.30;99.90;;;;;;4995025;28;20041;-82
2023/02/18 05:25:12;;;;;;;3.45;2.13;;;12.40;99.90;;;;;;4994925;28;20026;-81
2023/02/18 05:27:38;;;;;;;4.20;2.58;;;12.50;99.90;;;;;;4977296;28;20438;-81
2023/02/18 05:30:04;;;;;;;4.85;2.22;;;12.50;99.90;;;;;;4994340;28;20037;-81
2023/02/18 05:32:30;;;;;;;5.07;2.97;;;12.60;99.90;;;;;;4977317;28;20030;-81
2023/02/18 05:34:56;;;;;;;4.22;2.47;;;12.50;99.90;;;;;;4994289;28;20033;-82
2023/02/18 05:37:22;;;;;;;4.03;2.20;;;12.60;99.90;;;;;;4994510;28;20153;-81
2023/02/18 05:39:47;;;;;;;4.22;1.98;;;12.50;99.90;;;;;;4976508;28;20026;-81
2023/02/18 05:42:13;;;;;;;4.10;2.53;;;12.40;99.90;;;;;;4994546;28;20109;-81
2023/02/18 05:44:39;;;;;;;6.95;3.20;;;12.40;99.90;;;;;;4993837;28;20027;-82
2023/02/18 05:47:09;;;;;;;4.47;3.03;;;12.50;99.90;;;;;;4976874;28;20035;-82
2023/02/18 05:49:36;;;;;;;5.93;3.03;;;12.50;99.90;;;;;;4976622;28;20109;-81
2023/02/18 05:52:03;;;;;;;4.00;2.17;;;12.50;99.90;;;;;;4994698;28;20445;-81
2023/02/18 05:54:29;;;;;;;3.97;2.13;;;12.40;99.90;;;;;;4994143;28;20497;-82
2023/02/18 05:56:55;;;;;;;4.95;2.47;;;12.40;99.90;;;;;;4994256;28;20042;-81
2023/02/18 05:59:21;;;;;;;4.22;2.20;;;12.40;99.90;;;;;;4993547;28;20081;-81
2023/02/18 06:01:48;;;;;;;5.65;2.75;;;12.40;99.90;;;;;;4993954;28;20442;-81
2023/02/18 06:04:14;;;;;;;5.32;2.60;;;12.30;99.90;;;;;;4974413;28;20057;-81
2023/02/18 06:06:41;;;;;;;4.53;2.70;;;12.30;99.90;;;;;;4989060;28;20089;-81
2023/02/18 06:09:07;;;;;;;6.53;2.85;;;12.30;99.90;;;;;;4974728;28;20039;-81
2023/02/18 06:11:34;;;;;;;4.13;2.53;;;12.30;99.90;;;;;;4985972;28;20092;-81
2023/02/18 06:14:00;;;;;;;4.95;2.35;;;12.20;99.90;;;;;;4993764;28;20478;-80
2023/02/18 06:16:26;;;;;;;3.13;2.15;;;12.30;99.90;;;;;;4993641;28;20022;-81
2023/02/18 06:18:52;;;;;;;4.20;2.53;;;12.30;99.90;;;;;;4975933;28;20380;-81
2023/02/18 06:21:18;;;;;;;3.42;2.25;;;12.30;99.90;;;;;;4976142;28;20030;-81
2023/02/18 06:23:44;;;;;;;4.07;2.30;;;12.20;99.90;;;;;;4976298;28;20121;-81
2023/02/18 06:26:10;;;;;;;9.32;2.85;;;12.20;99.90;;;;;;4993155;28;20050;-81
2023/02/18 06:28:35;;;;;;;6.45;2.80;;;12.20;99.90;;;;;;4993369;28;20088;-81
2023/02/18 06:31:01;;;;;;;4.20;2.25;;;12.20;99.90;;;;;;4993296;28;20133;-82
2023/02/18 06:33:27;;;;;;;5.30;2.85;;;12.30;99.90;;;;;;4975770;28;20034;-81
2023/02/18 06:36:06;;;;;;;4.65;2.58;;;12.40;99.90;;;;;;4993413;28;20133;-81
2023/02/18 06:38:33;;;;;;;5.57;2.58;;;12.40;99.90;;;;;;4976782;28;20026;-81
2023/02/18 06:40:59;;;;;;;4.72;1.80;;;12.40;99.90;;;;;;4975902;28;20037;-82
2023/02/18 06:43:25;;;;;;;4.90;2.65;;;12.50;99.90;;;;;;4993403;28;20475;-81
2023/02/18 06:45:51;;;;;;;4.10;2.25;;;12.50;99.90;;;;;;4992576;28;20073;-81
2023/02/18 06:48:17;;;;;;;6.60;2.83;;;12.40;99.90;;;;;;4993083;28;20031;-81
2023/02/18 06:50:43;;;;;;;10.02;4.05;;;12.40;99.90;;;;;;4975585;28;20073;-81
2023/02/18 06:53:10;;;;;;;5.18;2.70;;;12.40;99.90;;;;;;4975807;28;20038;-81
2023/02/18 06:55:36;;;;;;;4.75;2.03;;;12.50;99.90;;;;;;4991548;28;20133;-76
2023/02/18 06:58:02;;;;;;;9.88;2.85;;;12.40;99.90;;;;;;4992203;28;20053;-81
2023/02/18 07:00:28;;;;;;;6.80;3.33;;;12.40;99.90;;;;;;4974005;28;20450;-76
2023/02/18 07:02:54;;;;;;;5.70;3.20;;;12.40;99.90;;;;;;4992121;28;20067;-78
2023/02/18 07:05:19;;;;;;;5.35;2.83;;;12.40;99.90;;;;;;4974796;28;20114;-78
2023/02/18 07:07:45;;;;;;;6.28;2.70;;;12.50;99.90;;;;;;4992173;28;20054;-78
2023/02/18 07:10:11;;;;;;;4.93;2.90;;;12.50;99.90;;;;;;4974538;28;20057;-78
2023/02/18 07:12:37;;;;;;;4.70;2.28;;;12.50;99.90;;;;;;4992454;28;20092;-77
2023/02/18 07:15:03;;;;;;;6.35;3.03;;;12.50;99.90;;;;;;4991338;28;20113;-75
2023/02/18 07:17:29;;;;;;;4.30;2.60;;;12.60;99.90;;;;;;4988864;28;20041;-79
2023/02/18 07:19:55;;;;;;;5.65;3.28;;;12.60;99.90;;;;;;4987172;28;20390;-75
2023/02/18 07:22:21;;;;;;;5.30;3.05;;;12.60;99.90;;;;;;4990063;28;20049;-75
2023/02/18 07:24:52;;;;;;;5.30;2.95;;;12.60;99.90;;;;;;4989526;28;20402;-72
2023/02/18 07:27:18;;;;;;;6.17;3.13;;;12.60;99.90;;;;;;4991244;28;20112;-76
2023/02/18 07:29:44;;;;;;;5.38;3.13;;;12.60;99.90;;;;;;4975088;28;20037;-72
2023/02/18 07:32:16;;;;;;;6.75;2.75;;;12.60;99.90;;;;;;4977166;28;20045;-78
2023/02/18 07:34:42;;;;;;;7.20;3.50;;;12.70;99.90;;;;;;4974857;28;20034;-77
2023/02/18 07:37:11;;;;;;;6.25;3.42;;;12.60;99.90;;;;;;4990162;28;20552;-77
2023/02/18 07:39:41;;;;;;;5.20;2.40;;;12.70;99.90;;;;;;4991587;28;20121;-73
2023/02/18 07:42:08;;;;;;;4.97;2.95;;;12.80;99.90;;;;;;4990676;28;20133;-73
2023/02/18 07:44:35;;;;;;;7.70;3.13;;;12.60;99.90;;;;;;4974527;28;20058;-75
2023/02/18 07:47:01;;;;;;;5.88;2.78;;;12.60;99.90;;;;;;4973965;28;20105;-75
2023/02/18 07:49:27;;;;;;;6.13;2.95;;;12.60;99.90;;;;;;4991707;28;20027;-74
2023/02/18 07:51:53;;;;;;;5.72;2.72;;;12.60;99.90;;;;;;4990686;28;20422;-74
2023/02/18 07:54:19;;;;;;;6.63;3.08;;;12.60;99.90;;;;;;4991873;28;20026;-74
2023/02/18 07:56:46;;;;;;;6.90;2.60;;;12.60;99.90;;;;;;4981902;28;20031;-74
2023/02/18 07:59:12;;;;;;;5.38;2.72;;;12.50;99.90;;;;;;4990467;28;20117;-74
2023/02/18 08:01:39;;;;;;;4.97;2.47;;;12.50;99.90;;;;;;4990359;28;20077;-74
2023/02/18 08:04:06;;;;;;;7.47;2.45;;;12.50;99.90;;;;;;4987480;28;20030;-73
2023/02/18 08:06:45;;;;;;;6.72;2.50;;;12.50;99.90;;;;;;4988867;28;21041;-74
2023/02/18 08:09:12;;;;;;;5.50;2.97;;;12.40;99.90;;;;;;4970570;28;20135;-74
2023/02/18 08:11:38;;;;;;;4.53;2.30;;;12.40;99.90;;;;;;4982966;28;20629;-73
2023/02/18 08:14:04;;;;;;;5.68;3.10;;;12.40;99.90;;;;;;4966709;28;20065;-74
2023/02/18 08:16:30;;;;;;;7.80;4.28;;;12.50;99.90;;;;;;4974115;28;20494;-74
2023/02/18 08:18:56;;;;;;;4.63;2.58;;;12.50;99.90;;;;;;4988011;28;20041;-74
2023/02/18 08:21:24;;;;;;;6.25;3.40;;;12.50;99.90;;;;;;4973512;28;20061;-74
2023/02/18 08:23:51;;;;;;;5.93;3.03;;;12.60;99.90;;;;;;4989646;28;20030;-75
2023/02/18 08:26:17;;;;;;;6.25;2.78;;;12.60;99.90;;;;;;4990034;28;20026;-74
2023/02/18 08:28:45;;;;;;;5.75;3.00;;;12.60;99.90;;;;;;4991156;28;20062;-75
2023/02/18 08:31:22;;;;;;;4.93;2.45;;;12.70;99.90;;;;;;4957436;28;20046;-75
2023/02/18 08:33:48;;;;;;;5.57;2.80;;;12.80;99.90;;;;;;4987700;28;20038;-72
2023/02/18 08:36:14;;;;;;;4.80;2.55;;;12.90;99.90;;;;;;4972808;28;20482;-70
2023/02/18 08:38:40;;;;;;;6.70;2.83;;;13.00;99.90;;;;;;4973323;28;20108;-71
2023/02/18 08:41:07;;;;;;;6.25;2.33;;;13.10;99.90;;;;;;4989711;28;20070;-69
2023/02/18 08:43:33;;;;;;;6.18;3.03;;;13.20;99.90;;;;;;4990957;28;20454;-69
2023/02/18 08:45:59;;;;;;;5.03;2.75;;;13.20;99.90;;;;;;4972952;28;20034;-71
2023/02/18 08:48:28;;;;;;;5.50;2.40;;;13.20;99.90;;;;;;4958203;28;20072;-68
2023/02/18 08:50:53;;;;;;;7.65;2.58;;;13.30;99.90;;;;;;4995044;28;20085;-70
2023/02/18 08:53:20;;;;;;;6.32;2.92;;;13.30;99.90;;;;;;4993771;28;20034;-69
2023/02/18 08:55:46;;;;;;;4.35;2.58;;;13.30;99.90;;;;;;4976806;28;20026;-69
2023/02/18 08:58:12;;;;;;;4.97;3.05;;;13.30;99.90;;;;;;4994716;28;20108;-69
2023/02/18 09:00:40;;;;;;;5.53;2.70;;;13.40;99.90;;;;;;4992359;23;20049;-74
2023/02/18 09:03:06;;;;;;;9.95;3.80;;;13.40;99.90;;;;;;5009756;28;20026;-73
2023/02/18 09:05:32;;;;;;;4.03;2.05;;;13.50;99.90;;;;;;5011112;28;20366;-73
2023/02/18 09:07:58;;;;;;;5.43;2.63;;;13.50;99.90;;;;;;5011789;28;20061;-71
2023/02/18 09:10:24;;;;;;;9.55;2.78;;;13.50;99.90;;;;;;5010828;28;20038;-73
2023/02/18 09:12:50;;;;;;;6.30;2.45;;;13.50;99.90;;;;;;5010426;28;20524;-73
2023/02/18 09:15:16;;;;;;;4.28;2.40;;;13.50;99.90;;;;;;5012263;28;20159;-72
2023/02/18 09:17:42;;;;;;;5.50;2.40;;;13.50;99.90;;;;;;4996442;28;20036;-72
2023/02/18 09:20:08;;;;;;;6.07;2.92;;;13.50;99.90;;;;;;5011402;28;20037;-73
2023/02/18 09:22:34;;;;;;;5.15;2.42;;;13.60;99.90;;;;;;4994879;28;20033;-73
2023/02/18 09:25:00;;;;;;;5.32;2.80;;;13.60;99.90;;;;;;5012995;28;20033;-72
2023/02/18 09:27:25;;;;;;;5.35;2.42;;;13.60;99.90;;;;;;4995473;28;20057;-72
2023/02/18 09:29:51;;;;;;;6.40;2.58;;;13.60;99.90;;;;;;5013355;28;20037;-72
2023/02/18 09:32:17;;;;;;;5.45;2.83;;;13.60;99.90;;;;;;4994987;28;20033;-71
2023/02/18 09:34:44;;;;;;;6.90;3.15;;;13.70;99.90;;;;;;5013529;28;20038;-72
2023/02/18 09:37:10;;;;;;;5.07;2.45;;;13.70;99.90;;;;;;4995900;28;20030;-73
2023/02/18 09:39:36;;;;;;;7.57;4.03;;;13.80;99.90;;;;;;4995361;28;20029;-72
2023/02/18 09:42:10;;;;;;;6.53;2.88;;;13.90;99.90;;;;;;5007539;28;20034;-72
2023/02/18 09:44:49;;;;;;;4.05;2.47;;;13.80;99.90;;;;;;4996624;28;20048;-72
2023/02/18 09:47:27;;;;;;;5.70;2.70;;;13.80;99.90;;;;;;4995469;28;20052;-72
2023/02/18 09:50:02;;;;;;;5.53;2.75;;;13.70;99.90;;;;;;5012961;28;20116;-72
2023/02/18 09:52:32;;;;;;;4.13;2.78;;;13.50;99.90;;;;;;5011553;28;20443;-72
2023/02/18 09:54:59;;;;;;;6.47;3.00;;;13.50;99.90;;;;;;4995775;28;20798;-73
2023/02/18 09:57:39;;;;;;;6.03;2.53;;;13.50;99.90;;;;;;4998975;28;20056;-72
2023/02/18 10:00:27;;;;;;;5.70;2.88;;;13.50;99.90;;;;;;4994904;28;20034;-73
2023/02/18 10:03:00;;;;;;;5.00;3.20;;;13.50;99.90;;;;;;4993347;28;20518;-73
2023/02/18 10:05:29;;;;;;;7.78;3.28;;;13.60;99.90;;;;;;4995205;28;20060;-72
2023/02/18 10:08:31;;;;;;;3.92;2.45;;;13.60;99.90;;;;;;4996002;28;20037;-73
2023/02/18 10:10:56;;;;;;;6.95;3.05;;;13.50;99.90;;;;;;5006939;28;20041;-72
2023/02/18 10:13:28;;;;;;;5.07;2.53;;;13.50;99.90;;;;;;5012905;28;20037;-73
2023/02/18 10:15:54;;;;;;;4.10;2.33;;;13.50;99.90;;;;;;5006857;28;20066;-71
2023/02/18 10:18:37;;;;;;;10.85;3.15;;;13.50;99.90;;;;;;4994766;28;20056;-73
2023/02/18 10:21:13;;;;;;;4.60;2.67;;;13.50;99.90;;;;;;5005881;28;20030;-71
2023/02/18 10:23:46;;;;;;;7.40;3.20;;;13.50;99.90;;;;;;4994974;28;20049;-71
2023/02/18 10:26:16;;;;;;;5.57;3.30;;;13.40;99.90;;;;;;4995976;28;20033;-72
2023/02/18 10:28:43;;;;;;;4.90;2.80;;;13.40;99.90;;;;;;4989820;28;20109;-72
2023/02/18 10:31:13;;;;;;;4.00;2.53;;;13.40;99.90;;;;;;4995059;28;20056;-73
2023/02/18 10:33:48;;;;;;;6.38;2.72;;;13.40;99.90;;;;;;4978384;28;20065;-73
2023/02/18 10:36:44;;;;;;;4.75;3.00;;;13.40;99.90;;;;;;4977362;28;20101;-72
2023/02/18 10:39:37;;;;;;;7.55;3.35;;;13.40;99.90;;;;;;4998266;28;20129;-72
2023/02/18 10:42:23;;;;;;;8.07;4.00;;;13.40;99.90;;;;;;4996063;28;20072;-73
2023/02/18 10:45:12;;;;;;;5.72;3.10;;;13.40;99.90;;;;;;5011795;28;20049;-72
2023/02/18 10:48:17;;;;;;;6.13;2.88;;;13.40;99.90;;;;;;5005942;28;20036;-72
2023/02/18 10:50:45;;;;;;;6.60;3.03;;;13.50;99.90;;;;;;5007209;28;20065;-71
2023/02/18 10:53:34;;;;;;;6.93;2.90;;;13.50;99.90;;;;;;4994517;28;20497;-73
2023/02/18 10:56:01;;;;;;;5.80;2.30;;;13.60;99.90;;;;;;4995176;28;20509;-72
2023/02/18 10:58:36;;;;;;;5.32;2.72;;;13.60;99.90;;;;;;4977599;28;20462;-71
2023/02/18 11:01:12;;;;;;;7.50;2.80;;;13.60;99.90;;;;;;5012071;28;20486;-74
2023/02/18 11:03:45;;;;;;;9.63;3.05;;;13.50;99.90;;;;;;4994783;28;20088;-74
2023/02/18 11:06:39;;;;;;;9.25;3.30;;;13.50;99.90;;;;;;5010881;28;20044;-72
2023/02/18 11:09:06;;;;;;;6.55;2.78;;;13.50;99.90;;;;;;5009630;28;20060;-70
2023/02/18 11:11:39;;;;;;;5.30;3.08;;;13.30;99.90;;;;;;4993379;28;20025;-70
2023/02/18 11:14:11;;;;;;;6.80;2.70;;;13.20;99.90;;;;;;4993380;28;20033;-71
2023/02/18 11:16:44;;;;;;;12.63;3.85;;;13.20;99.90;;;;;;5008424;28;20477;-72
2023/02/18 11:19:32;;;;;;;5.53;3.33;;;13.20;99.90;;;;;;4993047;28;20386;-72
2023/02/18 11:22:16;;;;;;;10.85;4.40;;;13.30;99.90;;;;;;4998123;28;20049;-78
2023/02/18 11:24:47;;;;;;;7.20;3.47;;;13.30;99.90;;;;;;4985666;28;20046;-76
2023/02/18 11:27:38;;;;;;;8.97;4.33;;;13.20;99.90;;;;;;5003246;28;20030;-77
2023/02/18 11:30:16;;;;;;;;;;;13.20;99.90;;;;;;4994632;28;20285;-73
2023/02/18 11:32:43;;;;;;;5.75;3.35;;;13.20;99.90;;;;;;4995345;28;19914;-75
2023/02/18 11:35:19;;;;;;;10.02;3.50;;;13.10;99.90;;;;;;5011199;28;20401;-75
2023/02/18 11:37:45;;;;;;;5.18;2.90;;;13.10;99.90;;;;;;5009903;28;20034;-75
2023/02/18 11:40:23;;;;;;;7.40;3.75;;;13.20;99.90;;;;;;4993230;28;20643;-75
2023/02/18 11:42:49;;;;;;;8.52;3.35;;;13.20;99.90;;;;;;4993896;28;20386;-73
2023/02/18 11:45:32;;;;;;;8.25;2.80;;;13.20;99.90;;;;;;5010993;28;20033;-74
2023/02/18 11:48:15;;;;;;;6.40;3.17;;;13.30;99.90;;;;;;4990105;28;20094;-75
2023/02/18 11:50:42;;;;;;;4.28;2.58;;;13.30;99.90;;;;;;4993345;28;20064;-75
2023/02/18 11:53:29;;;;;;;5.50;2.15;;;13.30;99.90;;;;;;5006451;28;20095;-71
2023/02/18 11:56:00;;;;;;;5.45;2.53;;;13.30;99.90;;;;;;4958442;28;20035;-69
2023/02/18 11:58:31;;;;;;;3.87;2.37;;;13.30;99.90;;;;;;4982369;28;20162;-69
2023/02/18 12:00:59;;;;;;;3.45;2.08;;;13.30;99.90;;;;;;5009389;28;20164;-69
2023/02/18 12:03:48;;;;;;;5.15;2.67;;;13.10;99.90;;;;;;4993034;28;20117;-69
2023/02/18 12:06:21;;;;;;;5.78;2.80;;;13.10;99.90;;;;;;4993937;28;20033;-69
2023/02/18 12:09:35;;;;;;;4.20;2.60;;;13.30;99.90;;;;;;4991914;28;20030;-69
2023/02/18 12:12:42;;;;;;;3.70;2.00;;;13.10;99.90;;;;;;4975267;28;20080;-69
2023/02/18 12:15:17;;;;;;;5.72;2.75;;;13.30;99.90;;;;;;4991982;28;20500;-69
2023/02/18 12:17:45;;;;;;;5.15;2.63;;;13.20;99.90;;;;;;4973716;28;20030;-67
2023/02/18 12:20:48;;;;;;;5.65;2.75;;;13.10;99.90;;;;;;4994741;28;20038;-70
2023/02/18 12:23:32;;;;;;;3.88;2.53;;;13.20;99.90;;;;;;5006215;28;20029;-69
2023/02/18 12:26:19;;;;;;;5.60;3.47;;;13.20;99.90;;;;;;5010723;28;20029;-67
2023/02/18 12:29:17;;;;;;;4.55;2.60;;;13.30;99.90;;;;;;5006377;28;20061;-68
2023/02/18 12:32:11;;;;;;;6.78;3.10;;;13.30;99.90;;;;;;5005761;28;20103;-69
2023/02/18 12:35:03;;;;;;;6.38;3.15;;;13.40;99.90;;;;;;4977440;28;20054;-68
2023/02/18 12:37:56;;;;;;;4.00;2.05;;;13.50;99.90;;;;;;5003234;28;20033;-67
2023/02/18 12:40:31;;;;;;;2.75;1.52;;;13.60;99.90;;;;;;4985054;28;20026;-67
2023/02/18 12:43:36;;;;;;;4.53;2.03;;;13.60;99.90;;;;;;4992911;28;20022;-67
2023/02/18 12:46:32;;;;;;;4.18;2.03;;;13.60;99.90;;;;;;4995385;28;20397;-67
2023/02/18 12:49:09;;;;;;;6.22;2.05;;;13.70;99.90;;;;;;4993581;28;20042;-67
2023/02/18 12:52:13;;;;;;;3.42;1.38;;;13.70;99.90;;;;;;5010300;28;20029;-68
2023/02/18 12:55:16;;;;;;;4.47;1.85;;;13.80;99.90;;;;;;4977289;28;20126;-68
2023/02/18 12:57:53;;;;;;;4.10;1.55;;;13.70;99.90;;;;;;4990742;28;20030;-67
2023/02/18 13:01:08;;;;;;;4.68;2.53;;;13.70;99.90;;;;;;5001305;28;20101;-67
2023/02/18 13:04:19;;;;;;;2.22;1.08;;;13.70;99.90;;;;;;5001272;28;20141;-68
2023/02/18 13:07:35;;;;;;;4.95;1.70;;;13.80;99.90;;;;;;5006020;28;20030;-67
2023/02/18 13:10:17;;;;;;;3.50;1.73;;;13.80;99.90;;;;;;4996647;28;20117;-67
2023/02/18 13:13:11;;;;;;;4.25;2.10;;;13.80;99.90;;;;;;4973404;28;20030;-67
2023/02/18 13:15:50;;;;;;;3.70;1.75;;;13.90;99.90;;;;;;4988791;28;20041;-67
2023/02/18 13:18:34;;;;;;;3.45;1.38;;;13.80;99.90;;;;;;5005066;28;20037;-67